Lanzarote > ESTACION METEOROLÓGICA Yaiza

DATOS ACTUALES Online

Ultima actulizacion 29 minutos

11.9 ºC

Temperatura

29

Humedad (%)

Presión (mb)

2.7

Precipitación (mm)

14.9 O

Viento (Km/h)

DATOS DIARIOS

Temperatura últimas 24 horas (ºC)

Humedad últimas 24 horas (%)

Presión atmosférica últimas 24 horas (mb)

Precipitaciones últimas 23 horas (mm)

Viento últimas 24 horas (Km/h)

Hora Temperatura (°C) ºC Precipitación (mm) mm Presión (mb) mb Humedad (%) % Viento (Km/h) km/h
24 - 23:00 12.4 0 0 26 17.9 NO
25 - 00:00 10.8 0 0 30 14.6 NO
25 - 01:00 7.7 0 0 25 11.6 NO
25 - 02:00 3.2 0 0 23 8.1 N
25 - 03:00 4.3 0 0 25 12.6 N
25 - 04:00 4.3 0 0 27 11.8 NO
25 - 05:00 3.5 0 0 29 4.1 NW
25 - 06:00 3.9 0 0 29 10.8 N
25 - 07:00 3.4 0 0 27 9.5 N
25 - 08:00 3.7 0 0 30 13.4 NO
25 - 09:00 6.2 0 0 29 25.7 NO
25 - 10:00 7.8 0 0 27 17.6 NO
25 - 11:00 12.8 0 0 27 23.6 NO
25 - 12:00 14.9 0 0 33 23.7 NO
25 - 13:00 15.8 0 0 31 29.4 NO
25 - 14:00 16 0 0 30 34 NO
25 - 15:00 15.8 0 0 30 27 NO
25 - 16:00 14.9 0 0 37 24 NO
25 - 17:00 12.1 0 0 41 18.3 O
25 - 18:00 9.3 0.7 0 32 14.5 O
25 - 19:00 9.9 1.6 0 28 18.4 O
25 - 20:00 11.3 2.3 0 26 23.2 SO
25 - 21:00 11.7 2.7 0 26 18.4 SO
25 - 22:00 11.9 2.7 0 29 14.9 O
25 - 23:00
Apalmet utiliza cookies propias y de terceros para mejorar la usabilidad y la experiencia web. Política de cookies.